Weather at Courtney Plummer Airport

Public forecast

Using degrees Fahrenheit for public forecast. Weather courtesy of forecast.io.

Closest aviation weather report (METAR) to Courtney Plummer Airport

Closest report is Wittman Regional Airport, 9.2 nm (17.0 km) SE. Retrieved 2021/06/13 09:53 UTC (39 minutes ago):

KOSH 130953Z AUTO 27004KT 10SM CLR 17/13 A2997 RMK AO2 SLP138 T01670128

Closest aviation forecast (TAF) to Courtney Plummer Airport

Forecast is more than 12 hours old.

Closest forecast is Wittman Regional Airport, 9.2 nm (17.0 km) SE. Retrieved 2021/05/03 12:42 UTC (1 month ago):

TAF KOSH 031141Z 0312/0412 VRB04KT 4SM TSRA BR OVC005CB TEMPO 0315/0318 2SM TSRA BR OVC001CB FM031800 04005KT 4SM SHRA BR OVC006 TEMPO 0318/0321 2SM TSRA BR OVC004CB FM040000 36007KT 4SM BR VCTS BKN005CB FM040300 35007KT 6SM BR VCSH BKN008 FM040600 33009KT P6SM OVC010